createdAt,value
2023-01-30T00:01:04.294Z,2.40
2023-01-30T00:03:34.337Z,1.70
2023-01-30T00:06:02.946Z,2.83
2023-01-30T00:08:30.353Z,2.08
2023-01-30T00:10:57.844Z,2.20
2023-01-30T00:13:27.464Z,1.67
2023-01-30T00:15:55.287Z,2.17
2023-01-30T00:18:22.690Z,2.97
2023-01-30T00:20:59.261Z,1.58
2023-01-30T00:23:28.445Z,2.70
2023-01-30T00:25:56.279Z,2.67
2023-01-30T00:28:23.783Z,2.55
2023-01-30T00:30:52.554Z,1.85
2023-01-30T00:33:21.494Z,1.65
2023-01-30T00:35:52.865Z,1.90
2023-01-30T00:38:21.050Z,1.52
2023-01-30T00:40:48.899Z,1.73
2023-01-30T00:43:37.087Z,1.70
2023-01-30T00:46:33.677Z,1.65
2023-01-30T00:49:01.219Z,1.38
2023-01-30T00:51:28.741Z,1.33
2023-01-30T00:53:56.286Z,1.83
2023-01-30T00:56:23.763Z,1.67
2023-01-30T00:58:51.279Z,1.98
2023-01-30T01:01:18.771Z,1.30
2023-01-30T01:03:46.262Z,1.30
2023-01-30T01:06:14.016Z,1.38
2023-01-30T01:08:41.550Z,1.50
2023-01-30T01:11:09.168Z,1.33
2023-01-30T01:13:36.728Z,1.20
2023-01-30T01:16:04.528Z,1.15
2023-01-30T01:18:31.948Z,1.08
2023-01-30T01:20:59.450Z,1.17
2023-01-30T01:23:27.881Z,1.15
2023-01-30T01:25:55.893Z,1.27
2023-01-30T01:28:23.312Z,1.40
2023-01-30T01:30:50.916Z,1.58
2023-01-30T01:33:18.737Z,1.77
2023-01-30T01:35:47.796Z,1.25
2023-01-30T01:38:16.555Z,1.55
2023-01-30T01:41:04.929Z,1.40
2023-01-30T01:44:00.286Z,1.73
2023-01-30T01:46:38.918Z,1.33
2023-01-30T01:49:15.567Z,2.10
2023-01-30T01:52:07.533Z,1.55
2023-01-30T01:55:07.476Z,1.83
2023-01-30T01:57:47.724Z,1.77
2023-01-30T02:00:21.138Z,2.15
2023-01-30T02:02:58.715Z,1.55
2023-01-30T02:05:30.225Z,1.90
2023-01-30T02:08:15.915Z,1.85
2023-01-30T02:10:53.381Z,1.85
2023-01-30T02:13:21.487Z,1.83
2023-01-30T02:15:49.584Z,1.65
2023-01-30T02:18:17.732Z,2.00
2023-01-30T02:21:13.263Z,1.73
2023-01-30T02:23:52.736Z,1.55
2023-01-30T02:26:41.774Z,2.58
2023-01-30T02:29:24.355Z,2.13
2023-01-30T02:32:03.027Z,2.92
2023-01-30T02:34:50.420Z,2.17
2023-01-30T02:37:29.311Z,2.08
2023-01-30T02:40:33.437Z,2.10
2023-01-30T02:43:21.899Z,1.88
2023-01-30T02:46:12.034Z,2.70
2023-01-30T02:48:44.744Z,2.30
2023-01-30T02:51:21.263Z,2.10
2023-01-30T02:53:50.793Z,2.47
2023-01-30T02:56:19.147Z,2.05
2023-01-30T02:58:52.257Z,2.03
2023-01-30T03:01:50.729Z,2.22
2023-01-30T03:04:27.470Z,2.38
2023-01-30T03:07:18.530Z,1.90
2023-01-30T03:10:00.782Z,2.22
2023-01-30T03:12:47.181Z,1.55
2023-01-30T03:15:29.427Z,1.70
2023-01-30T03:17:58.121Z,1.80
2023-01-30T03:20:26.122Z,1.65
2023-01-30T03:22:54.914Z,1.98
2023-01-30T03:25:26.658Z,1.63
2023-01-30T03:27:55.356Z,1.83
2023-01-30T03:30:26.178Z,1.73
2023-01-30T03:33:00.950Z,1.45
2023-01-30T03:35:30.427Z,1.60
2023-01-30T03:37:59.063Z,1.75
2023-01-30T03:40:26.778Z,1.42
2023-01-30T03:42:55.244Z,1.60
2023-01-30T03:45:23.818Z,1.60
2023-01-30T03:47:52.010Z,1.60
2023-01-30T03:50:19.541Z,2.30
2023-01-30T03:52:47.000Z,1.65
2023-01-30T03:55:18.050Z,1.73
2023-01-30T03:57:45.944Z,1.65
2023-01-30T04:00:14.428Z,1.98
2023-01-30T04:02:44.573Z,1.77
2023-01-30T04:05:15.855Z,1.90
2023-01-30T04:07:49.751Z,1.42
2023-01-30T04:10:19.889Z,1.70
2023-01-30T04:12:47.797Z,2.22
2023-01-30T04:15:15.363Z,2.25
2023-01-30T04:18:01.361Z,2.13
2023-01-30T04:20:42.653Z,2.03
2023-01-30T04:23:10.602Z,2.92
2023-01-30T04:25:38.078Z,2.10
2023-01-30T04:28:08.156Z,1.50
2023-01-30T04:30:38.016Z,1.67
2023-01-30T04:33:32.534Z,1.50
2023-01-30T04:36:02.783Z,2.00
2023-01-30T04:38:31.724Z,2.08
2023-01-30T04:41:00.161Z,1.98
2023-01-30T04:43:30.998Z,2.85
2023-01-30T04:46:16.833Z,1.60
2023-01-30T04:48:44.596Z,1.90
2023-01-30T04:51:12.259Z,1.98
2023-01-30T04:53:39.931Z,1.83
2023-01-30T04:56:08.305Z,2.30
2023-01-30T04:58:36.022Z,3.03
2023-01-30T05:01:21.027Z,2.28
2023-01-30T05:03:55.955Z,2.80
2023-01-30T05:06:23.465Z,2.53
2023-01-30T05:08:52.571Z,2.22
2023-01-30T05:11:20.885Z,2.47
2023-01-30T05:13:49.020Z,2.88
2023-01-30T05:16:17.948Z,2.55
2023-01-30T05:18:45.815Z,1.80
2023-01-30T05:21:26.325Z,2.50
2023-01-30T05:23:55.220Z,1.90
2023-01-30T05:26:23.144Z,2.08
2023-01-30T05:28:55.210Z,2.33
2023-01-30T05:31:23.164Z,2.17
2023-01-30T05:33:52.484Z,2.53
2023-01-30T05:36:22.716Z,2.00
2023-01-30T05:38:50.331Z,2.22
2023-01-30T05:41:18.383Z,2.80
2023-01-30T05:43:50.380Z,2.25
2023-01-30T05:46:18.145Z,2.20
2023-01-30T05:48:45.792Z,2.00
2023-01-30T05:51:18.656Z,2.20
2023-01-30T05:53:46.630Z,2.15
2023-01-30T05:56:14.501Z,2.53
2023-01-30T05:58:42.601Z,2.40
2023-01-30T06:01:13.126Z,2.00
2023-01-30T06:03:40.745Z,2.92
2023-01-30T06:06:08.564Z,3.45
2023-01-30T06:08:36.131Z,3.05
2023-01-30T06:11:10.087Z,3.05
2023-01-30T06:13:38.626Z,2.45
2023-01-30T06:16:07.430Z,2.70
2023-01-30T06:18:35.555Z,2.60
2023-01-30T06:21:02.994Z,3.03
2023-01-30T06:23:30.585Z,3.00
2023-01-30T06:25:58.815Z,3.13
2023-01-30T06:28:27.094Z,2.67
2023-01-30T06:30:54.744Z,2.70
2023-01-30T06:33:22.468Z,2.25
2023-01-30T06:35:52.372Z,3.22
2023-01-30T06:38:20.788Z,2.47
2023-01-30T06:40:50.174Z,2.55
2023-01-30T06:43:17.885Z,2.40
2023-01-30T06:45:45.362Z,2.63
2023-01-30T06:48:12.859Z,3.50
2023-01-30T06:50:40.392Z,2.80
2023-01-30T06:53:10.782Z,3.10
2023-01-30T06:55:38.679Z,2.72
2023-01-30T06:58:08.844Z,2.60
2023-01-30T07:00:39.607Z,2.58
2023-01-30T07:03:11.723Z,2.95
2023-01-30T07:05:40.661Z,2.63
2023-01-30T07:08:08.504Z,3.13
2023-01-30T07:10:36.313Z,2.65
2023-01-30T07:13:05.025Z,2.63
2023-01-30T07:15:32.823Z,2.58
2023-01-30T07:18:00.748Z,2.80
2023-01-30T07:20:30.278Z,3.13
2023-01-30T07:22:58.118Z,2.63
2023-01-30T07:25:27.332Z,2.53
2023-01-30T07:28:00.906Z,2.88
2023-01-30T07:30:32.423Z,2.67
2023-01-30T07:33:00.605Z,2.47
2023-01-30T07:35:31.489Z,2.63
2023-01-30T07:37:59.324Z,3.00
2023-01-30T07:40:26.913Z,2.55
2023-01-30T07:43:06.082Z,3.15
2023-01-30T07:45:39.062Z,2.10
2023-01-30T07:48:07.827Z,1.80
2023-01-30T07:50:35.304Z,2.92
2023-01-30T07:53:04.283Z,2.42
2023-01-30T07:55:32.011Z,3.08
2023-01-30T07:57:59.587Z,2.10
2023-01-30T08:00:27.799Z,2.10
2023-01-30T08:02:55.373Z,1.90
2023-01-30T08:05:22.890Z,2.47
2023-01-30T08:07:50.313Z,2.25
2023-01-30T08:10:18.258Z,2.10
2023-01-30T08:12:45.858Z,2.28
2023-01-30T08:15:13.391Z,2.58
2023-01-30T08:17:40.834Z,2.58
2023-01-30T08:20:09.430Z,2.20
2023-01-30T08:22:36.978Z,2.22
2023-01-30T08:25:04.701Z,2.33
2023-01-30T08:27:32.210Z,2.63
2023-01-30T08:29:59.667Z,2.03
2023-01-30T08:32:27.074Z,2.97
2023-01-30T08:34:54.620Z,2.70
2023-01-30T08:37:22.101Z,2.28
2023-01-30T08:39:49.629Z,2.45
2023-01-30T08:42:17.097Z,2.13
2023-01-30T08:44:44.623Z,3.33
2023-01-30T08:47:12.070Z,2.40
2023-01-30T08:49:39.432Z,2.75
2023-01-30T08:52:06.930Z,2.95
2023-01-30T08:54:34.444Z,2.28
2023-01-30T08:57:01.870Z,2.88
2023-01-30T08:59:29.384Z,2.90
2023-01-30T09:01:56.837Z,2.28
2023-01-30T09:04:26.456Z,2.38
2023-01-30T09:06:54.838Z,2.58
2023-01-30T09:09:22.259Z,2.42
2023-01-30T09:11:49.822Z,2.97
2023-01-30T09:14:19.790Z,3.30
2023-01-30T09:16:48.392Z,2.88
2023-01-30T09:19:15.987Z,2.53
2023-01-30T09:21:43.542Z,2.92
2023-01-30T09:24:11.036Z,2.42
2023-01-30T09:26:40.513Z,2.53
2023-01-30T09:29:07.951Z,2.85
2023-01-30T09:31:35.561Z,2.47
2023-01-30T09:34:03.161Z,2.42
2023-01-30T09:36:30.971Z,2.40
2023-01-30T09:38:58.443Z,2.15
2023-01-30T09:41:47.199Z,1.88
2023-01-30T09:44:33.220Z,2.47
2023-01-30T09:47:11.676Z,2.30
2023-01-30T09:49:42.012Z,2.60
2023-01-30T09:52:31.721Z,2.22
2023-01-30T09:55:19.587Z,2.30
2023-01-30T09:57:51.768Z,2.38
2023-01-30T10:00:34.388Z,2.20
2023-01-30T10:03:34.108Z,2.15
2023-01-30T10:06:07.083Z,1.98
2023-01-30T10:08:41.500Z,2.50
2023-01-30T10:11:34.086Z,2.03
2023-01-30T10:14:38.160Z,2.50
2023-01-30T10:17:08.803Z,2.20
2023-01-30T10:19:58.186Z,2.50
2023-01-30T10:23:05.929Z,2.20
2023-01-30T10:25:42.879Z,2.67
2023-01-30T10:28:26.243Z,2.00
2023-01-30T10:31:02.066Z,2.55
2023-01-30T10:36:09.888Z,2.13
2023-01-30T10:38:57.268Z,2.22
2023-01-30T10:41:34.893Z,1.85
2023-01-30T10:44:13.851Z,2.83
2023-01-30T10:46:53.013Z,2.75
2023-01-30T10:49:40.698Z,2.20
2023-01-30T10:52:44.768Z,2.40
2023-01-30T10:55:12.222Z,2.17
2023-01-30T10:57:51.720Z,2.70
2023-01-30T11:00:31.312Z,2.00
2023-01-30T11:03:25.745Z,1.85
2023-01-30T11:05:58.742Z,2.30
2023-01-30T11:08:28.888Z,2.10
2023-01-30T11:10:57.708Z,2.25
2023-01-30T11:13:31.512Z,2.45
2023-01-30T11:16:10.261Z,2.25
2023-01-30T11:21:44.493Z,2.40
2023-01-30T11:24:19.528Z,2.17
2023-01-30T11:26:48.496Z,2.65
2023-01-30T11:29:23.008Z,2.00
2023-01-30T11:31:51.325Z,2.30
2023-01-30T11:34:21.373Z,2.45
2023-01-30T11:36:49.967Z,1.83
2023-01-30T11:39:18.776Z,2.22
2023-01-30T11:41:58.585Z,1.90
2023-01-30T11:44:36.996Z,2.05
2023-01-30T11:47:08.908Z,2.00
2023-01-30T11:50:02.877Z,2.65
2023-01-30T11:52:38.203Z,2.00
2023-01-30T11:55:11.294Z,2.83
2023-01-30T11:57:44.879Z,2.03
2023-01-30T12:00:23.901Z,2.55
2023-01-30T12:02:53.774Z,1.63
2023-01-30T12:05:37.197Z,1.92
2023-01-30T12:08:17.501Z,2.30
2023-01-30T12:10:58.562Z,2.08
2023-01-30T12:13:34.295Z,1.75
2023-01-30T12:16:15.459Z,2.20
2023-01-30T12:19:03.723Z,2.60
2023-01-30T12:21:44.925Z,1.98
2023-01-30T12:24:18.894Z,2.40
2023-01-30T12:26:56.377Z,2.28
2023-01-30T12:30:02.547Z,2.75
2023-01-30T12:32:35.188Z,2.63
2023-01-30T12:35:14.273Z,2.00
2023-01-30T12:38:03.136Z,1.95
2023-01-30T12:41:02.172Z,2.25
2023-01-30T12:43:47.810Z,2.50
2023-01-30T12:46:23.503Z,2.37
2023-01-30T12:49:17.399Z,2.40
2023-01-30T12:52:02.638Z,2.65
2023-01-30T12:54:36.300Z,2.55
2023-01-30T12:57:33.879Z,2.35
2023-01-30T13:00:20.860Z,2.13
2023-01-30T13:03:24.157Z,2.55
2023-01-30T13:06:12.307Z,2.10
2023-01-30T13:08:54.541Z,2.17
2023-01-30T13:11:41.956Z,2.58
2023-01-30T13:14:40.430Z,2.90
2023-01-30T13:17:18.565Z,1.92
2023-01-30T13:20:05.307Z,2.58
2023-01-30T13:22:38.646Z,2.20
2023-01-30T13:25:25.019Z,2.58
2023-01-30T13:28:02.497Z,2.58
2023-01-30T13:30:31.126Z,1.77
2023-01-30T13:33:05.070Z,2.65
2023-01-30T13:35:37.097Z,2.05
2023-01-30T13:38:05.466Z,2.00
2023-01-30T13:40:44.807Z,2.58
2023-01-30T13:43:29.021Z,1.65
2023-01-30T13:46:01.041Z,2.22
2023-01-30T13:48:43.453Z,1.70
2023-01-30T13:51:10.898Z,1.83
2023-01-30T13:53:43.332Z,2.25
2023-01-30T13:56:44.763Z,1.50
2023-01-30T13:59:49.657Z,1.52
2023-01-30T14:02:20.555Z,1.42
2023-01-30T14:04:56.148Z,1.42
2023-01-30T14:07:38.761Z,1.35
2023-01-30T14:10:08.964Z,1.38
2023-01-30T14:12:39.295Z,1.90
2023-01-30T14:15:16.539Z,1.90
2023-01-30T14:18:03.112Z,1.40
2023-01-30T14:20:36.382Z,1.90
2023-01-30T14:23:24.263Z,2.15
2023-01-30T14:25:56.482Z,1.65
2023-01-30T14:28:24.211Z,2.10
2023-01-30T14:31:02.480Z,1.90
2023-01-30T14:33:36.345Z,1.35
2023-01-30T14:36:16.043Z,1.63
2023-01-30T14:38:46.672Z,2.25
2023-01-30T14:41:27.233Z,1.58
2023-01-30T14:43:54.864Z,1.80
2023-01-30T14:46:22.300Z,1.77
2023-01-30T14:48:50.127Z,2.13
2023-01-30T14:51:43.626Z,1.95
2023-01-30T14:54:16.948Z,2.47
2023-01-30T14:57:06.027Z,2.20
2023-01-30T14:59:38.148Z,2.22
2023-01-30T15:02:08.816Z,1.67
2023-01-30T15:05:03.638Z,1.83
2023-01-30T15:07:39.675Z,2.15
2023-01-30T15:10:20.039Z,1.58
2023-01-30T15:13:12.864Z,1.58
2023-01-30T15:16:26.864Z,1.70
2023-01-30T15:19:06.338Z,1.50
2023-01-30T15:21:52.665Z,2.13
2023-01-30T15:24:38.005Z,1.70
2023-01-30T15:27:17.698Z,1.88
2023-01-30T15:29:56.809Z,1.60
2023-01-30T15:32:29.888Z,1.52
2023-01-30T15:35:00.863Z,1.70
2023-01-30T15:37:46.445Z,2.05
2023-01-30T15:40:18.026Z,2.20
2023-01-30T15:42:47.389Z,2.35
2023-01-30T15:45:33.034Z,1.88
2023-01-30T15:48:09.263Z,1.95
2023-01-30T15:50:37.587Z,1.45
2023-01-30T15:53:11.931Z,1.85
2023-01-30T15:55:42.055Z,1.48
2023-01-30T15:58:13.960Z,1.30
2023-01-30T16:00:46.576Z,1.67
2023-01-30T16:03:18.792Z,2.10
2023-01-30T16:05:56.767Z,2.45
2023-01-30T16:08:33.048Z,2.53
2023-01-30T16:11:01.268Z,1.75
2023-01-30T16:13:29.970Z,1.77
2023-01-30T16:16:18.442Z,1.83
2023-01-30T16:18:54.555Z,2.00
2023-01-30T16:21:34.240Z,1.83
2023-01-30T16:24:08.030Z,2.42
2023-01-30T16:26:36.548Z,2.50
2023-01-30T16:29:16.482Z,2.72
2023-01-30T16:31:46.845Z,2.47
2023-01-30T16:34:38.306Z,2.45
2023-01-30T16:37:21.056Z,2.20
2023-01-30T16:40:23.082Z,2.35
2023-01-30T16:43:21.916Z,2.28
2023-01-30T16:45:56.839Z,2.17
2023-01-30T16:48:33.121Z,3.65
2023-01-30T16:51:00.693Z,6.70
2023-01-30T16:53:31.477Z,5.80
2023-01-30T16:56:00.122Z,6.18
2023-01-30T16:58:34.283Z,6.80
2023-01-30T17:01:07.700Z,5.13
2023-01-30T17:03:43.590Z,4.93
2023-01-30T17:08:54.110Z,2.70
2023-01-30T17:11:41.622Z,2.42
2023-01-30T17:14:22.615Z,2.35
2023-01-30T17:17:09.973Z,2.08
2023-01-30T17:19:38.071Z,2.20
2023-01-30T17:22:08.755Z,2.13
2023-01-30T17:24:36.519Z,2.20
2023-01-30T17:27:04.692Z,2.67
2023-01-30T17:29:48.949Z,2.30
2023-01-30T17:32:16.607Z,4.10
2023-01-30T17:34:44.194Z,3.20
2023-01-30T17:37:16.449Z,2.70
2023-01-30T17:39:44.361Z,3.42
2023-01-30T17:42:13.561Z,3.00
2023-01-30T17:44:41.583Z,2.58
2023-01-30T17:47:11.553Z,2.55
2023-01-30T17:49:40.130Z,1.90
2023-01-30T17:52:07.718Z,2.97
2023-01-30T17:54:35.235Z,3.08
2023-01-30T17:57:05.711Z,2.95
2023-01-30T17:59:33.486Z,3.15
2023-01-30T18:02:01.094Z,3.53
2023-01-30T18:04:28.666Z,4.07
2023-01-30T18:07:06.989Z,3.17
2023-01-30T18:09:34.544Z,2.45
2023-01-30T18:12:02.035Z,2.53
2023-01-30T18:14:29.552Z,2.45
2023-01-30T18:17:00.247Z,2.17
2023-01-30T18:19:29.677Z,1.73
2023-01-30T18:21:58.458Z,2.35
2023-01-30T18:24:26.203Z,4.07
2023-01-30T18:26:53.724Z,3.35
2023-01-30T18:29:21.397Z,3.50
2023-01-30T18:31:48.920Z,3.70
2023-01-30T18:34:16.474Z,4.13
2023-01-30T18:36:43.959Z,3.30
2023-01-30T18:39:12.471Z,3.72
2023-01-30T18:41:39.900Z,3.28
2023-01-30T18:44:10.647Z,3.60
2023-01-30T18:46:38.223Z,4.65
2023-01-30T18:49:08.349Z,3.22
2023-01-30T18:51:35.988Z,3.42
2023-01-30T18:54:03.618Z,4.30
2023-01-30T18:56:33.219Z,3.83
2023-01-30T18:59:03.935Z,3.22
2023-01-30T19:01:38.676Z,3.50
2023-01-30T19:04:08.570Z,3.65
2023-01-30T19:06:38.497Z,3.45
2023-01-30T19:09:06.651Z,3.38
2023-01-30T19:11:53.120Z,3.17
2023-01-30T19:16:47.918Z,3.38
2023-01-30T19:19:15.439Z,3.40
2023-01-30T19:21:43.376Z,3.60
2023-01-30T19:24:16.092Z,3.55
2023-01-30T19:26:44.210Z,4.72
2023-01-30T19:29:11.766Z,3.40
2023-01-30T19:31:39.441Z,2.80
2023-01-30T19:34:08.633Z,3.17
2023-01-30T19:36:36.593Z,2.95
2023-01-30T19:39:06.211Z,2.80
2023-01-30T19:41:36.190Z,2.55
2023-01-30T19:44:06.753Z,2.58
2023-01-30T19:46:35.096Z,3.50
2023-01-30T19:49:03.559Z,3.40
2023-01-30T19:51:34.265Z,2.85
2023-01-30T19:54:07.121Z,2.58
2023-01-30T19:56:36.660Z,2.90
2023-01-30T19:59:04.419Z,2.47
2023-01-30T20:01:35.447Z,2.47
2023-01-30T20:04:04.118Z,3.40
2023-01-30T20:06:33.416Z,3.05
2023-01-30T20:09:04.777Z,2.72
2023-01-30T20:11:34.782Z,3.03
2023-01-30T20:14:04.796Z,2.22
2023-01-30T20:16:34.613Z,2.53
2023-01-30T20:19:08.235Z,2.20
2023-01-30T20:21:37.199Z,2.35
2023-01-30T20:24:05.156Z,2.45
2023-01-30T20:26:36.043Z,1.95
2023-01-30T20:29:05.369Z,3.00
2023-01-30T20:31:34.685Z,2.35
2023-01-30T20:34:03.662Z,2.42
2023-01-30T20:36:31.360Z,1.90
2023-01-30T20:39:04.328Z,2.30
2023-01-30T20:41:37.422Z,2.65
2023-01-30T20:44:07.531Z,2.22
2023-01-30T20:46:43.735Z,2.00
2023-01-30T20:49:22.372Z,2.13
2023-01-30T20:51:53.074Z,2.33
2023-01-30T20:54:23.423Z,2.97
2023-01-30T20:56:53.713Z,2.67
2023-01-30T20:59:24.060Z,2.00
2023-01-30T21:01:53.141Z,2.15
2023-01-30T21:04:22.137Z,2.65
2023-01-30T21:06:49.752Z,2.10
2023-01-30T21:09:20.972Z,1.95
2023-01-30T21:11:49.749Z,2.05
2023-01-30T21:14:17.743Z,2.70
2023-01-30T21:16:45.541Z,2.15
2023-01-30T21:19:16.268Z,2.08
2023-01-30T21:21:55.068Z,2.42
2023-01-30T21:24:28.473Z,2.25
2023-01-30T21:26:56.776Z,1.83
2023-01-30T21:29:28.323Z,2.20
2023-01-30T21:31:57.548Z,2.35
2023-01-30T21:34:25.465Z,1.80
2023-01-30T21:37:12.001Z,2.05
2023-01-30T21:39:57.855Z,2.10
2023-01-30T21:42:44.108Z,1.90
2023-01-30T21:45:11.684Z,1.80
2023-01-30T21:47:39.130Z,2.10
2023-01-30T21:50:06.962Z,1.73
2023-01-30T21:52:34.760Z,1.70
2023-01-30T21:55:02.245Z,1.83
2023-01-30T21:57:29.691Z,1.95
2023-01-30T21:59:57.186Z,1.95
2023-01-30T22:02:24.610Z,2.00
2023-01-30T22:04:52.204Z,1.63
2023-01-30T22:07:19.662Z,1.50
2023-01-30T22:09:49.082Z,1.42
2023-01-30T22:12:16.701Z,1.95
2023-01-30T22:14:44.214Z,1.77
2023-01-30T22:17:11.836Z,2.17
2023-01-30T22:19:39.715Z,1.95
2023-01-30T22:22:07.266Z,1.75
2023-01-30T22:24:34.788Z,1.77
2023-01-30T22:27:02.403Z,1.83
2023-01-30T22:29:30.008Z,1.40
2023-01-30T22:31:57.708Z,1.70
2023-01-30T22:34:25.316Z,1.60
2023-01-30T22:36:53.205Z,1.73
2023-01-30T22:39:20.608Z,1.73
2023-01-30T22:41:48.027Z,2.13
2023-01-30T22:44:15.588Z,1.77
2023-01-30T22:46:43.190Z,1.92
2023-01-30T22:49:10.894Z,1.52
2023-01-30T22:51:40.860Z,1.60
2023-01-30T22:54:16.627Z,1.40
2023-01-30T22:56:46.266Z,1.67
2023-01-30T22:59:14.457Z,1.40
2023-01-30T23:01:47.980Z,1.40
2023-01-30T23:04:18.541Z,1.20
2023-01-30T23:06:47.253Z,1.13
2023-01-30T23:09:21.327Z,1.45
2023-01-30T23:12:10.116Z,1.30
2023-01-30T23:14:39.114Z,1.42
2023-01-30T23:17:26.176Z,0.80
2023-01-30T23:19:56.782Z,1.05
2023-01-30T23:22:24.394Z,0.98
2023-01-30T23:24:52.406Z,0.82
2023-01-30T23:27:21.113Z,0.95
2023-01-30T23:29:48.647Z,0.77
2023-01-30T23:32:19.156Z,0.80
2023-01-30T23:34:47.691Z,1.00
2023-01-30T23:37:15.660Z,0.80
2023-01-30T23:39:43.560Z,0.88
2023-01-30T23:42:11.028Z,0.70
2023-01-30T23:44:38.838Z,0.65
2023-01-30T23:47:06.445Z,1.00
2023-01-30T23:49:33.910Z,0.70
2023-01-30T23:52:01.329Z,0.70
2023-01-30T23:54:28.835Z,0.65
2023-01-30T23:56:56.317Z,0.45
2023-01-30T23:59:23.931Z,0.43
